Time;durP1;ratioP1;P1;durP2;ratioP2;P2;SDS_P1;SDS_P2;PMS_P1;PMS_P2;Temp;Humidity;BMP_temperature;BMP_pressure;BME280_temperature;BME280_humidity;BME280_pressure;Samples;Min_cycle;Max_cycle;Signal;HPM_P1;HPM_P2
2023/08/07 00:00:42;;;;;;;11.60;5.35;;;14.70;99.90;;;;;;5055413;28;20072;-78
2023/08/07 00:03:08;;;;;;;15.52;5.95;;;14.70;99.90;;;;;;5055874;28;20045;-79
2023/08/07 00:05:34;;;;;;;12.70;5.88;;;14.70;99.90;;;;;;5037232;28;20532;-76
2023/08/07 00:07:59;;;;;;;15.27;6.43;;;14.70;99.90;;;;;;5054978;28;20041;-79
2023/08/07 00:10:26;;;;;;;14.57;6.22;;;14.70;99.90;;;;;;5037582;28;20473;-78
2023/08/07 00:12:51;;;;;;;15.35;6.43;;;14.70;99.90;;;;;;5055440;28;20087;-81
2023/08/07 00:15:17;;;;;;;13.20;5.90;;;14.70;99.90;;;;;;5037097;28;20088;-78
2023/08/07 00:17:43;;;;;;;12.52;6.18;;;14.70;99.90;;;;;;5054706;28;20063;-79
2023/08/07 00:20:09;;;;;;;13.88;5.97;;;14.70;99.90;;;;;;5053835;28;20052;-77
2023/08/07 00:22:35;;;;;;;13.98;6.10;;;14.60;99.90;;;;;;5053138;28;20048;-78
2023/08/07 00:25:01;;;;;;;12.73;5.53;;;14.70;99.90;;;;;;5054207;28;20041;-78
2023/08/07 00:27:26;;;;;;;12.00;5.25;;;14.70;99.90;;;;;;5056750;28;20128;-79
2023/08/07 00:29:52;;;;;;;12.57;5.38;;;14.60;99.90;;;;;;5055720;28;20206;-79
2023/08/07 00:32:18;;;;;;;17.50;5.93;;;14.60;99.90;;;;;;5055839;28;20045;-79
2023/08/07 00:34:44;;;;;;;11.30;4.93;;;14.60;99.90;;;;;;5054074;28;20048;-79
2023/08/07 00:37:09;;;;;;;12.77;5.45;;;14.50;99.90;;;;;;5055067;28;20040;-79
2023/08/07 00:39:35;;;;;;;14.25;5.57;;;14.50;99.90;;;;;;5055038;28;20061;-79
2023/08/07 00:42:01;;;;;;;14.27;4.72;;;14.60;99.90;;;;;;5055894;28;20071;-79
2023/08/07 00:44:27;;;;;;;10.65;4.57;;;14.60;99.90;;;;;;5054571;28;20049;-80
2023/08/07 00:46:53;;;;;;;14.73;4.95;;;14.60;99.90;;;;;;5055606;28;20124;-77
2023/08/07 00:49:20;;;;;;;10.90;3.97;;;14.50;99.90;;;;;;5061008;28;20049;-79
2023/08/07 00:51:47;;;;;;;13.45;4.25;;;14.60;99.90;;;;;;5059156;28;20463;-78
2023/08/07 00:54:17;;;;;;;12.45;4.68;;;14.60;99.90;;;;;;5059749;28;20059;-81
2023/08/07 00:56:42;;;;;;;10.23;4.13;;;14.60;99.90;;;;;;5059396;28;20049;-78
2023/08/07 00:59:09;;;;;;;10.60;4.10;;;14.60;99.90;;;;;;5056264;28;20087;-77
2023/08/07 01:01:36;;;;;;;;;;;14.60;99.90;;;;;;5055305;28;20116;-78
2023/08/07 01:04:02;;;;;;;11.63;4.22;;;14.60;99.90;;;;;;5053955;28;19921;-76
2023/08/07 01:06:28;;;;;;;12.52;4.18;;;14.50;99.90;;;;;;5053761;28;20088;-79
2023/08/07 01:08:54;;;;;;;8.77;3.85;;;14.60;99.90;;;;;;5053616;28;20092;-78
2023/08/07 01:11:22;;;;;;;10.40;4.27;;;14.60;99.90;;;;;;5054211;28;20049;-78
2023/08/07 01:14:02;;;;;;;12.32;4.50;;;14.50;99.90;;;;;;5055141;28;20103;-79
2023/08/07 01:16:44;;;;;;;15.48;5.00;;;14.60;99.90;;;;;;5053638;28;20052;-77
2023/08/07 01:19:27;;;;;;;16.65;4.22;;;14.60;99.90;;;;;;5053161;28;20071;-77
2023/08/07 01:22:09;;;;;;;16.23;4.20;;;14.60;99.90;;;;;;5054271;28;20135;-77
2023/08/07 01:24:36;;;;;;;11.93;3.78;;;14.60;99.90;;;;;;5054116;28;20041;-77
2023/08/07 01:27:19;;;;;;;14.00;3.78;;;14.60;99.90;;;;;;5053136;28;20036;-76
2023/08/07 01:30:03;;;;;;;19.83;4.72;;;14.60;99.90;;;;;;5054631;28;20468;-80
2023/08/07 01:32:36;;;;;;;16.83;4.15;;;14.70;99.90;;;;;;5053831;28;20092;-80
2023/08/07 01:35:05;;;;;;;17.55;4.15;;;14.60;99.90;;;;;;5054808;28;20041;-76
2023/08/07 01:37:33;;;;;;;19.65;4.35;;;14.60;99.90;;;;;;5053789;28;20045;-77
2023/08/07 01:40:03;;;;;;;11.68;3.78;;;14.60;99.90;;;;;;5035913;28;20088;-79
2023/08/07 01:42:29;;;;;;;19.25;4.03;;;14.70;99.90;;;;;;5053999;28;20137;-79
2023/08/07 01:44:55;;;;;;;20.10;4.03;;;14.70;99.90;;;;;;5053237;28;20044;-77
2023/08/07 01:47:21;;;;;;;19.27;4.40;;;14.60;99.90;;;;;;5051964;28;20617;-77
2023/08/07 01:49:46;;;;;;;13.73;3.40;;;14.60;99.90;;;;;;5053451;28;20389;-76
2023/08/07 01:52:13;;;;;;;13.65;3.33;;;14.60;99.90;;;;;;5052024;28;20041;-77
2023/08/07 01:54:38;;;;;;;15.80;3.53;;;14.60;99.90;;;;;;5052850;28;20049;-78
2023/08/07 01:57:04;;;;;;;15.25;3.65;;;14.60;99.90;;;;;;5052565;28;20287;-77
2023/08/07 01:59:30;;;;;;;16.70;3.33;;;14.60;99.90;;;;;;5056050;28;20080;-77
2023/08/07 02:01:56;;;;;;;14.00;3.33;;;14.60;99.90;;;;;;5067076;28;20790;-76
2023/08/07 02:04:21;;;;;;;13.80;3.15;;;14.60;99.90;;;;;;5067613;28;20049;-77
2023/08/07 02:06:47;;;;;;;17.75;3.33;;;14.70;99.90;;;;;;5058285;28;20090;-78
2023/08/07 02:09:13;;;;;;;15.77;3.75;;;14.70;99.90;;;;;;5058039;28;20052;-76
2023/08/07 02:11:38;;;;;;;11.57;3.13;;;14.60;99.90;;;;;;5056804;28;20041;-76
2023/08/07 02:14:05;;;;;;;14.13;2.97;;;14.60;99.90;;;;;;5056055;28;20503;-77
2023/08/07 02:16:30;;;;;;;16.23;2.72;;;14.60;99.90;;;;;;5057051;28;20041;-79
2023/08/07 02:18:56;;;;;;;17.60;2.92;;;14.50;99.90;;;;;;5022708;28;20051;-75
2023/08/07 02:21:22;;;;;;;12.70;2.20;;;14.50;99.90;;;;;;5055356;28;20500;-78
2023/08/07 02:23:47;;;;;;;17.33;2.67;;;14.40;99.90;;;;;;5057101;28;20049;-78
2023/08/07 02:26:13;;;;;;;13.73;2.08;;;14.30;99.90;;;;;;5057361;28;20055;-78
2023/08/07 02:28:39;;;;;;;10.55;2.08;;;14.30;99.90;;;;;;5057017;28;20076;-79
2023/08/07 02:31:05;;;;;;;13.93;2.35;;;14.20;99.90;;;;;;5056886;28;20084;-78
2023/08/07 02:33:30;;;;;;;10.90;2.70;;;14.20;99.90;;;;;;5055336;28;20041;-78
2023/08/07 02:35:56;;;;;;;18.63;2.60;;;14.10;99.90;;;;;;5054907;28;20059;-77
2023/08/07 02:38:22;;;;;;;17.20;2.78;;;14.00;99.90;;;;;;5038877;28;20099;-78
2023/08/07 02:40:48;;;;;;;19.40;2.58;;;14.00;99.90;;;;;;5057769;28;20053;-81
2023/08/07 02:43:14;;;;;;;15.15;2.38;;;14.00;99.90;;;;;;5055495;28;20076;-77
2023/08/07 02:45:40;;;;;;;17.63;2.63;;;14.00;99.90;;;;;;5055174;28;20056;-78
2023/08/07 02:48:05;;;;;;;18.85;2.47;;;13.90;99.90;;;;;;5056198;28;20045;-79
2023/08/07 02:50:32;;;;;;;18.83;2.40;;;13.90;99.90;;;;;;5057390;28;20045;-80
2023/08/07 02:53:01;;;;;;;19.08;2.83;;;13.90;99.90;;;;;;5038525;28;20049;-79
2023/08/07 02:55:27;;;;;;;17.70;2.17;;;13.80;99.90;;;;;;5057533;28;20416;-80
2023/08/07 02:57:53;;;;;;;14.68;1.98;;;13.80;99.90;;;;;;5055347;28;20124;-80
2023/08/07 03:00:19;;;;;;;12.18;1.80;;;13.80;99.90;;;;;;5057101;28;20120;-79
2023/08/07 03:02:45;;;;;;;14.27;1.60;;;13.70;99.90;;;;;;5044090;28;20503;-77
2023/08/07 03:05:11;;;;;;;15.23;1.73;;;13.70;99.90;;;;;;5060141;28;20053;-78
2023/08/07 03:07:37;;;;;;;13.95;2.83;;;13.70;99.90;;;;;;5059452;28;20048;-78
2023/08/07 03:10:04;;;;;;;16.10;1.80;;;13.60;99.90;;;;;;5060118;28;20092;-78
2023/08/07 03:12:29;;;;;;;11.73;1.45;;;13.60;99.90;;;;;;5058193;28;20044;-79
2023/08/07 03:14:55;;;;;;;16.08;1.70;;;13.60;99.90;;;;;;5057147;28;20063;-80
2023/08/07 03:17:21;;;;;;;14.45;1.90;;;13.60;99.90;;;;;;5057353;28;20053;-79
2023/08/07 03:19:46;;;;;;;15.07;1.77;;;13.70;99.90;;;;;;5056411;28;20040;-78
2023/08/07 03:22:12;;;;;;;16.40;2.10;;;13.70;99.90;;;;;;5054618;28;20500;-80
2023/08/07 03:24:38;;;;;;;20.25;1.35;;;13.70;99.90;;;;;;5055930;28;20368;-77
2023/08/07 03:27:04;;;;;;;17.98;1.67;;;13.70;99.90;;;;;;5055136;28;20056;-78
2023/08/07 03:29:30;;;;;;;21.45;1.80;;;13.70;99.90;;;;;;5054497;28;20044;-77
2023/08/07 03:31:56;;;;;;;14.13;2.00;;;13.70;99.90;;;;;;5054337;28;20470;-76
2023/08/07 03:34:22;;;;;;;13.88;1.65;;;13.80;99.90;;;;;;5055751;28;20498;-79
2023/08/07 03:36:47;;;;;;;14.48;2.00;;;13.80;99.90;;;;;;5054786;28;20045;-79
2023/08/07 03:39:13;;;;;;;15.70;1.60;;;13.80;99.90;;;;;;5054776;28;20457;-80
2023/08/07 03:41:39;;;;;;;16.50;1.75;;;13.80;99.90;;;;;;5056137;28;20382;-79
2023/08/07 03:44:06;;;;;;;17.42;2.05;;;13.80;99.90;;;;;;5055662;28;20049;-79
2023/08/07 03:46:32;;;;;;;15.30;1.88;;;13.80;99.90;;;;;;5054976;28;20584;-78
2023/08/07 03:48:58;;;;;;;15.88;2.00;;;13.80;99.90;;;;;;5054547;28;20127;-78
2023/08/07 03:51:23;;;;;;;17.45;2.17;;;13.80;99.90;;;;;;5053496;28;20049;-78
2023/08/07 03:53:49;;;;;;;19.83;1.92;;;13.70;99.90;;;;;;5054902;28;20037;-80
2023/08/07 03:56:15;;;;;;;11.40;1.77;;;13.70;99.90;;;;;;5055506;28;20056;-80
2023/08/07 03:58:41;;;;;;;17.77;1.98;;;13.70;99.90;;;;;;5054201;28;20041;-79
2023/08/07 04:01:07;;;;;;;16.13;2.30;;;13.80;99.90;;;;;;5055100;28;20053;-77
2023/08/07 04:03:33;;;;;;;18.13;2.00;;;13.70;99.90;;;;;;5055252;28;20048;-79
2023/08/07 04:06:00;;;;;;;15.82;2.60;;;13.80;99.90;;;;;;5054517;28;20488;-80
2023/08/07 04:08:26;;;;;;;18.42;1.83;;;13.90;99.90;;;;;;5055013;28;20110;-78
2023/08/07 04:11:04;;;;;;;20.48;3.20;;;13.90;99.90;;;;;;5056438;28;20045;-77
2023/08/07 04:13:31;;;;;;;19.05;2.03;;;14.00;99.90;;;;;;5074197;28;20048;-80
2023/08/07 04:15:57;;;;;;;17.27;2.60;;;14.00;99.90;;;;;;5063481;28;20183;-79
2023/08/07 04:18:23;;;;;;;21.35;2.13;;;14.00;99.90;;;;;;5053641;28;20048;-76
2023/08/07 04:20:58;;;;;;;17.17;3.10;;;14.00;99.90;;;;;;5052814;28;20504;-75
2023/08/07 04:23:24;;;;;;;25.92;2.65;;;13.90;99.90;;;;;;5053900;28;20052;-74
2023/08/07 04:25:51;;;;;;;12.85;2.53;;;13.90;99.90;;;;;;5054510;28;20123;-74
2023/08/07 04:28:17;;;;;;;;;;;13.80;99.90;;;;;;5054979;28;20045;-74
2023/08/07 04:30:44;;;;;;;15.93;2.10;;;13.80;99.90;;;;;;5053550;28;19966;-74
2023/08/07 04:33:10;;;;;;;17.10;2.90;;;13.80;99.90;;;;;;5052496;28;20044;-74
2023/08/07 04:35:35;;;;;;;16.70;2.33;;;13.80;99.90;;;;;;5053506;28;20053;-76
2023/08/07 04:38:02;;;;;;;11.93;2.75;;;13.80;99.90;;;;;;5054124;28;20128;-75
2023/08/07 04:40:28;;;;;;;15.38;2.72;;;13.80;99.90;;;;;;5053644;28;20048;-75
2023/08/07 04:42:54;;;;;;;16.37;2.20;;;13.80;99.90;;;;;;5053457;28;20489;-76
2023/08/07 04:45:20;;;;;;;14.00;2.38;;;13.80;99.90;;;;;;5053601;28;20128;-76
2023/08/07 04:47:46;;;;;;;14.15;2.40;;;13.80;99.90;;;;;;5053801;28;20120;-75
2023/08/07 04:50:11;;;;;;;21.20;2.70;;;13.80;99.90;;;;;;5052373;28;20041;-78
2023/08/07 04:52:37;;;;;;;17.65;3.22;;;13.80;99.90;;;;;;5052432;28;20049;-77
2023/08/07 04:55:04;;;;;;;20.40;2.72;;;13.80;99.90;;;;;;5053602;28;20052;-78
2023/08/07 04:57:29;;;;;;;17.67;2.58;;;13.80;99.90;;;;;;5052716;28;20044;-81
2023/08/07 04:59:55;;;;;;;19.95;3.08;;;13.80;99.90;;;;;;5053748;28;20132;-78
2023/08/07 05:02:21;;;;;;;16.52;2.83;;;13.90;99.90;;;;;;5036242;28;20442;-80
2023/08/07 05:04:46;;;;;;;20.65;2.83;;;13.80;99.90;;;;;;5054316;28;20045;-80
2023/08/07 05:07:12;;;;;;;21.35;3.40;;;13.80;99.90;;;;;;5053510;28;20044;-79
2023/08/07 05:09:38;;;;;;;21.58;3.20;;;13.80;99.90;;;;;;5054538;28;20190;-75
2023/08/07 05:12:06;;;;;;;21.40;3.22;;;13.90;99.90;;;;;;5054641;28;20402;-80
2023/08/07 05:14:32;;;;;;;21.60;3.72;;;14.00;99.90;;;;;;5036663;28;20075;-81
2023/08/07 05:16:59;;;;;;;19.23;2.90;;;14.10;99.90;;;;;;5054277;28;20049;-81
2023/08/07 05:19:25;;;;;;;22.92;4.15;;;14.20;99.90;;;;;;5053794;28;20046;-81
2023/08/07 05:21:51;;;;;;;24.15;2.90;;;14.30;99.90;;;;;;5055743;28;20048;-82
2023/08/07 05:24:18;;;;;;;19.73;3.40;;;14.30;99.90;;;;;;5054023;28;20453;-79
2023/08/07 05:26:44;;;;;;;19.17;3.33;;;14.40;99.90;;;;;;5038257;28;20061;-81
2023/08/07 05:29:10;;;;;;;18.45;3.20;;;14.40;99.90;;;;;;5054865;28;20044;-78
2023/08/07 05:31:36;;;;;;;22.95;3.97;;;14.40;99.90;;;;;;5055802;28;20063;-80
2023/08/07 05:34:02;;;;;;;24.13;3.28;;;14.40;99.90;;;;;;5057604;28;20055;-79
2023/08/07 05:36:28;;;;;;;18.92;3.60;;;14.30;99.90;;;;;;5058439;28;20063;-81
2023/08/07 05:38:54;;;;;;;14.98;3.03;;;14.30;99.90;;;;;;5058186;28;20492;-78
2023/08/07 05:41:19;;;;;;;19.77;3.35;;;14.30;99.90;;;;;;5056503;28;20049;-74
2023/08/07 05:43:45;;;;;;;21.45;3.22;;;14.20;99.90;;;;;;5055277;28;20059;-75
2023/08/07 05:46:11;;;;;;;13.82;2.53;;;14.20;99.90;;;;;;5056257;28;20098;-73
2023/08/07 05:48:37;;;;;;;10.35;2.30;;;14.10;99.90;;;;;;5056945;28;20437;-75
2023/08/07 05:51:03;;;;;;;17.50;2.80;;;14.00;99.90;;;;;;5056259;28;20044;-78
2023/08/07 05:53:29;;;;;;;14.82;2.97;;;14.00;99.90;;;;;;5055215;28;20037;-79
2023/08/07 05:55:55;;;;;;;18.42;2.92;;;14.00;99.90;;;;;;5055896;28;20045;-81
2023/08/07 05:58:21;;;;;;;18.17;2.80;;;14.00;99.90;;;;;;5039757;28;20053;-78
2023/08/07 06:00:47;;;;;;;17.00;3.20;;;14.00;99.90;;;;;;5057764;28;20496;-76
2023/08/07 06:03:13;;;;;;;13.25;2.88;;;14.00;99.90;;;;;;5058730;28;20053;-80
2023/08/07 06:05:38;;;;;;;19.63;3.30;;;14.00;99.90;;;;;;5059254;28;20044;-79
2023/08/07 06:08:04;;;;;;;16.98;3.47;;;14.00;99.90;;;;;;5057094;28;20045;-79
2023/08/07 06:10:30;;;;;;;20.50;2.88;;;13.90;99.90;;;;;;5060235;28;20049;-78
2023/08/07 06:12:56;;;;;;;27.48;3.03;;;14.00;99.90;;;;;;5060087;28;20051;-80
2023/08/07 06:15:21;;;;;;;27.83;4.10;;;14.00;99.90;;;;;;5057776;28;20047;-82
2023/08/07 06:17:47;;;;;;;20.27;3.53;;;14.10;99.90;;;;;;5056494;28;20471;-81
2023/08/07 06:20:14;;;;;;;23.45;3.63;;;14.20;99.90;;;;;;5057117;28;20056;-79
2023/08/07 06:22:40;;;;;;;26.05;4.82;;;14.40;99.90;;;;;;5059158;28;20190;-76
2023/08/07 06:25:07;;;;;;;24.92;4.07;;;14.50;99.90;;;;;;5066040;28;20049;-79
2023/08/07 06:27:33;;;;;;;27.48;4.22;;;14.50;99.90;;;;;;5063252;28;20392;-82
2023/08/07 06:29:59;;;;;;;28.42;4.07;;;14.60;99.90;;;;;;5058419;28;20378;-81
2023/08/07 06:32:26;;;;;;;25.40;4.00;;;14.70;99.90;;;;;;5056647;28;20056;-81
2023/08/07 06:34:52;;;;;;;21.70;3.58;;;14.90;99.90;;;;;;5039900;28;20280;-75
2023/08/07 06:37:18;;;;;;;24.83;4.13;;;14.90;99.90;;;;;;5060134;28;20095;-79
2023/08/07 06:39:44;;;;;;;30.40;4.20;;;14.80;99.90;;;;;;5059886;28;20045;-76
2023/08/07 06:42:10;;;;;;;23.83;3.60;;;14.70;99.90;;;;;;5055917;28;20068;-75
2023/08/07 06:44:35;;;;;;;28.08;4.10;;;14.70;99.90;;;;;;5055275;28;20125;-78
2023/08/07 06:47:01;;;;;;;16.23;3.45;;;14.50;99.90;;;;;;5056599;28;20093;-79
2023/08/07 06:49:27;;;;;;;19.58;3.97;;;14.40;99.90;;;;;;5056402;28;20462;-79
2023/08/07 06:51:52;;;;;;;22.23;3.35;;;14.10;99.90;;;;;;5056559;28;20048;-80
2023/08/07 06:54:18;;;;;;;17.40;3.67;;;13.90;99.90;;;;;;5054780;28;20499;-76
2023/08/07 06:56:44;;;;;;;17.50;3.63;;;13.90;99.90;;;;;;5054960;28;20056;-75
2023/08/07 06:59:10;;;;;;;10.90;2.35;;;13.80;99.90;;;;;;5055244;28;20049;-76
2023/08/07 07:01:36;;;;;;;25.30;3.20;;;13.80;99.90;;;;;;5055614;28;20055;-76
2023/08/07 07:04:02;;;;;;;17.45;4.20;;;13.80;99.90;;;;;;5054514;28;20045;-79
2023/08/07 07:06:28;;;;;;;26.92;4.32;;;13.80;99.90;;;;;;5054421;28;20049;-79
2023/08/07 07:08:56;;;;;;;21.42;4.18;;;13.90;99.90;;;;;;5055452;28;20036;-78
2023/08/07 07:11:24;;;;;;;26.92;4.72;;;13.90;99.90;;;;;;5055339;28;20465;-75
2023/08/07 07:13:50;;;;;;;23.88;5.13;;;13.90;99.90;;;;;;5057260;28;20513;-81
2023/08/07 07:16:23;;;;;;;28.75;4.30;;;14.00;99.90;;;;;;5059718;28;20041;-77
2023/08/07 07:18:52;;;;;;;22.35;3.92;;;14.10;99.90;;;;;;5061839;28;20127;-78
2023/08/07 07:21:18;;;;;;;21.33;4.47;;;14.20;99.90;;;;;;5064052;28;20048;-77
2023/08/07 07:23:44;;;;;;;18.25;3.83;;;14.40;99.90;;;;;;5065643;28;20049;-80
2023/08/07 07:26:10;;;;;;;18.40;4.00;;;14.70;99.90;;;;;;5062762;28;20087;-79
2023/08/07 07:28:35;;;;;;;22.65;3.90;;;14.70;99.90;;;;;;5060774;28;20044;-79
2023/08/07 07:31:03;;;;;;;23.38;3.90;;;14.80;99.90;;;;;;5058159;28;20068;-76
2023/08/07 07:33:29;;;;;;;21.02;3.95;;;14.80;99.90;;;;;;5057369;28;20107;-76
2023/08/07 07:35:55;;;;;;;20.13;3.42;;;14.80;99.90;;;;;;5057534;28;20128;-79
2023/08/07 07:38:22;;;;;;;17.70;3.13;;;14.80;99.90;;;;;;5057490;28;20095;-82
2023/08/07 07:40:47;;;;;;;14.68;2.30;;;14.70;99.90;;;;;;5060783;28;20061;-79
2023/08/07 07:43:13;;;;;;;19.60;2.75;;;14.60;99.90;;;;;;5057210;28;20071;-77
2023/08/07 07:45:39;;;;;;;15.88;2.67;;;14.50;99.90;;;;;;5057655;28;20052;-78
2023/08/07 07:48:06;;;;;;;16.08;2.88;;;14.50;99.90;;;;;;5059363;28;20114;-80
2023/08/07 07:50:32;;;;;;;17.77;2.67;;;14.50;99.90;;;;;;5056784;28;20077;-78
2023/08/07 07:52:57;;;;;;;21.58;3.15;;;14.60;99.90;;;;;;5057886;28;20047;-77
2023/08/07 07:55:25;;;;;;;16.30;2.60;;;14.70;99.90;;;;;;5058866;28;20052;-79
2023/08/07 07:57:51;;;;;;;18.27;2.70;;;14.90;99.90;;;;;;5057711;28;20087;-77
2023/08/07 08:00:17;;;;;;;18.63;3.33;;;15.20;99.90;;;;;;5055554;28;20504;-79
2023/08/07 08:02:43;;;;;;;14.02;1.75;;;15.30;99.90;;;;;;5041053;28;20048;-77
2023/08/07 08:05:10;;;;;;;6.45;1.13;;;15.20;99.90;;;;;;5055631;28;20041;-75
2023/08/07 08:07:37;;;;;;;;;;;14.70;99.90;;;;;;5054336;28;20127;-75
2023/08/07 08:10:03;;;;;;;10.70;1.52;;;14.30;99.90;;;;;;5054932;28;20307;-74
2023/08/07 08:12:30;;;;;;;8.73;1.33;;;14.20;99.90;;;;;;5055909;28;20051;-79
2023/08/07 08:14:56;;;;;;;7.63;1.25;;;14.10;99.90;;;;;;5056383;28;20504;-79
2023/08/07 08:17:23;;;;;;;6.72;1.30;;;14.10;99.90;;;;;;5054769;28;20053;-79
2023/08/07 08:19:49;;;;;;;;;;;14.10;99.90;;;;;;5054893;28;20548;-77
2023/08/07 08:22:14;;;;;;;8.67;1.27;;;14.10;99.90;;;;;;5087682;28;19971;-77
2023/08/07 08:24:40;;;;;;;13.73;1.75;;;14.00;99.90;;;;;;5054228;28;20479;-80
2023/08/07 08:27:06;;;;;;;12.85;1.80;;;14.00;99.90;;;;;;5054880;28;20112;-78
2023/08/07 08:29:32;;;;;;;13.50;1.83;;;14.00;99.90;;;;;;5055447;28;20045;-76
2023/08/07 08:31:58;;;;;;;11.13;1.52;;;14.10;99.90;;;;;;5036324;28;20047;-77
2023/08/07 08:34:25;;;;;;;11.40;2.20;;;14.30;99.90;;;;;;5057431;28;20053;-79
2023/08/07 08:36:51;;;;;;;12.27;1.98;;;14.40;99.90;;;;;;5062331;28;20079;-74
2023/08/07 08:39:16;;;;;;;11.18;1.80;;;14.70;99.90;;;;;;5055142;28;20049;-79
2023/08/07 08:41:46;;;;;;;13.00;2.15;;;14.90;99.90;;;;;;5053140;28;20049;-76
2023/08/07 08:44:13;;;;;;;15.95;2.75;;;15.10;99.90;;;;;;5054488;28;20049;-78
2023/08/07 08:46:41;;;;;;;14.77;2.67;;;15.20;99.90;;;;;;5053739;28;20056;-80
2023/08/07 08:49:10;;;;;;;15.60;3.10;;;14.60;99.90;;;;;;5054658;28;20045;-79
2023/08/07 08:51:37;;;;;;;16.88;3.00;;;14.20;99.90;;;;;;5053986;28;20052;-77
2023/08/07 08:54:03;;;;;;;17.70;2.85;;;14.10;99.90;;;;;;5036457;28;20060;-80
2023/08/07 08:56:32;;;;;;;22.80;4.00;;;13.90;99.90;;;;;;5020321;28;20049;-77
2023/08/07 08:58:58;;;;;;;16.30;3.58;;;13.90;99.90;;;;;;5055553;28;20355;-79
2023/08/07 09:01:25;;;;;;;17.02;3.83;;;14.00;99.90;;;;;;5055958;28;20059;-76
2023/08/07 09:03:53;;;;;;;25.85;3.83;;;14.00;99.90;;;;;;5055459;28;20072;-81
2023/08/07 09:06:19;;;;;;;21.50;3.70;;;14.20;99.90;;;;;;5055409;28;20041;-81
2023/08/07 09:08:46;;;;;;;23.77;3.95;;;14.20;99.90;;;;;;5061991;28;20091;-79
2023/08/07 09:11:13;;;;;;;14.95;3.25;;;14.20;99.90;;;;;;5063957;28;20049;-78
2023/08/07 09:13:40;;;;;;;22.95;3.75;;;14.10;99.90;;;;;;5063118;28;20044;-79
2023/08/07 09:16:09;;;;;;;22.85;3.80;;;14.10;99.90;;;;;;5063419;28;20052;-81
2023/08/07 09:18:35;;;;;;;20.33;3.25;;;14.00;99.90;;;;;;5064314;28;20044;-80
2023/08/07 09:21:01;;;;;;;25.80;3.73;;;14.00;99.90;;;;;;5063750;28;20041;-81
2023/08/07 09:23:27;;;;;;;20.55;3.42;;;14.00;99.90;;;;;;5064850;28;20301;-80
2023/08/07 09:26:00;;;;;;;17.83;2.92;;;14.10;99.90;;;;;;5063001;28;20049;-80
2023/08/07 09:28:28;;;;;;;17.02;2.90;;;14.20;99.90;;;;;;5060018;28;20052;-78
2023/08/07 09:30:54;;;;;;;25.30;3.55;;;14.40;99.90;;;;;;5058804;28;20076;-80
2023/08/07 09:33:26;;;;;;;23.77;3.40;;;14.60;99.90;;;;;;5060026;28;20041;-78
2023/08/07 09:35:56;;;;;;;19.58;2.95;;;14.60;99.90;;;;;;5059574;28;20049;-78
2023/08/07 09:38:23;;;;;;;16.48;2.65;;;14.80;99.90;;;;;;5056372;28;20127;-77
2023/08/07 09:40:49;;;;;;;15.55;2.58;;;14.80;99.90;;;;;;5057359;28;20378;-77
2023/08/07 09:43:22;;;;;;;12.77;2.97;;;15.00;99.90;;;;;;5056724;28;20049;-77
2023/08/07 09:45:51;;;;;;;11.77;2.10;;;15.10;99.90;;;;;;5056411;28;20572;-78
2023/08/07 09:48:27;;;;;;;14.38;2.45;;;15.20;99.90;;;;;;5056665;28;20048;-76
2023/08/07 09:50:53;;;;;;;13.67;2.10;;;15.50;99.90;;;;;;5056466;28;20059;-75
2023/08/07 09:53:26;;;;;;;19.20;2.80;;;15.90;99.90;;;;;;5055702;28;20305;-78
2023/08/07 09:55:53;;;;;;;16.60;2.97;;;16.20;99.90;;;;;;5055472;28;20133;-74
2023/08/07 09:58:19;;;;;;;12.00;2.10;;;16.40;99.90;;;;;;5055876;28;20480;-78
2023/08/07 10:00:47;;;;;;;17.42;2.00;;;16.40;99.90;;;;;;5056743;28;20045;-74
2023/08/07 10:03:14;;;;;;;15.48;2.00;;;16.30;99.90;;;;;;5056374;28;20477;-78
2023/08/07 10:05:41;;;;;;;11.43;1.90;;;16.30;99.90;;;;;;5056377;28;20102;-74
2023/08/07 10:08:06;;;;;;;;;;;16.10;99.90;;;;;;5056830;28;20381;-75
2023/08/07 10:10:34;;;;;;;11.93;1.70;;;15.90;99.90;;;;;;5089864;28;19925;-75
2023/08/07 10:13:01;;;;;;;17.75;2.58;;;15.80;99.90;;;;;;5056265;28;20550;-74
2023/08/07 10:15:29;;;;;;;19.02;2.72;;;15.90;99.90;;;;;;5056419;28;20053;-72
2023/08/07 10:17:54;;;;;;;17.38;2.47;;;16.00;99.90;;;;;;5055248;28;20040;-75
2023/08/07 10:20:21;;;;;;;20.70;2.88;;;16.00;99.90;;;;;;5056062;28;20048;-73
2023/08/07 10:22:48;;;;;;;13.20;2.13;;;16.20;99.90;;;;;;5056478;28;20041;-73
2023/08/07 10:25:15;;;;;;;14.95;2.97;;;16.30;99.90;;;;;;5055892;28;20105;-70
2023/08/07 10:27:42;;;;;;;19.50;2.75;;;16.70;99.90;;;;;;5039186;28;20049;-74
2023/08/07 10:30:14;;;;;;;12.18;2.22;;;16.80;99.90;;;;;;5055305;28;20057;-78
2023/08/07 10:32:43;;;;;;;14.50;2.13;;;17.10;99.90;;;;;;5054909;28;20507;-75
2023/08/07 10:35:08;;;;;;;13.18;2.67;;;17.00;99.90;;;;;;5054658;28;20118;-74
2023/08/07 10:37:41;;;;;;;10.48;1.73;;;16.90;99.90;;;;;;5055085;28;20084;-77
2023/08/07 10:40:09;;;;;;;11.23;1.98;;;17.10;99.90;;;;;;5056164;28;20067;-76
2023/08/07 10:42:54;;;;;;;16.95;2.35;;;17.00;99.90;;;;;;5055723;28;20045;-77
2023/08/07 10:45:22;;;;;;;12.70;2.33;;;17.10;99.90;;;;;;5059101;28;20045;-74
2023/08/07 10:48:17;;;;;;;16.58;2.50;;;17.30;99.90;;;;;;5056779;28;20045;-75
2023/08/07 10:51:00;;;;;;;15.38;2.08;;;17.40;99.90;;;;;;5054420;28;20175;-74
2023/08/07 10:53:37;;;;;;;18.20;2.03;;;17.30;99.90;;;;;;5056211;28;20049;-75
2023/08/07 10:56:04;;;;;;;11.32;2.05;;;17.00;99.90;;;;;;5055846;28;20397;-76
2023/08/07 10:58:36;;;;;;;14.13;2.00;;;17.10;99.90;;;;;;5054398;28;20064;-76
2023/08/07 11:01:20;;;;;;;15.52;2.10;;;16.80;99.90;;;;;;5055580;28;20045;-75
2023/08/07 11:03:56;;;;;;;18.35;2.10;;;16.70;99.90;;;;;;5037819;28;20191;-77
2023/08/07 11:06:33;;;;;;;11.68;1.63;;;16.60;99.90;;;;;;5055990;28;20053;-78
2023/08/07 11:09:02;;;;;;;15.27;1.88;;;16.70;99.90;;;;;;5055236;28;20055;-79
2023/08/07 11:11:29;;;;;;;12.40;1.65;;;17.00;99.90;;;;;;5055239;28;20049;-73
2023/08/07 11:13:54;;;;;;;12.07;1.90;;;17.40;99.90;;;;;;5054167;28;20159;-74
2023/08/07 11:16:21;;;;;;;11.30;2.10;;;17.90;99.90;;;;;;5037196;28;20135;-77
2023/08/07 11:18:48;;;;;;;17.23;2.15;;;18.10;99.90;;;;;;5056048;28;20048;-76
2023/08/07 11:21:14;;;;;;;7.65;1.80;;;18.20;99.90;;;;;;5055075;28;20432;-74
2023/08/07 11:23:41;;;;;;;11.27;2.10;;;17.80;99.90;;;;;;5055880;28;20041;-77
2023/08/07 11:26:08;;;;;;;11.10;1.58;;;17.90;99.90;;;;;;5054905;28;20048;-74
2023/08/07 11:28:34;;;;;;;13.52;1.90;;;17.70;99.90;;;;;;5054605;28;20048;-73
2023/08/07 11:31:00;;;;;;;14.03;1.97;;;17.90;99.90;;;;;;5053536;28;20052;-75
2023/08/07 11:33:27;;;;;;;14.80;2.38;;;17.90;99.90;;;;;;5054588;28;20659;-72
2023/08/07 11:35:55;;;;;;;9.73;1.35;;;17.90;99.90;;;;;;5054742;28;20055;-74
2023/08/07 11:38:44;;;;;;;11.73;1.63;;;18.00;99.90;;;;;;5053622;28;20068;-73
2023/08/07 11:41:12;;;;;;;12.15;1.60;;;17.90;99.90;;;;;;5054671;28;20053;-75
2023/08/07 11:43:38;;;;;;;10.93;1.63;;;18.00;99.90;;;;;;5037774;28;20097;-75
2023/08/07 11:46:06;;;;;;;11.95;2.15;;;18.10;99.90;;;;;;5053386;28;20439;-75
2023/08/07 11:48:33;;;;;;;14.63;1.40;;;17.90;99.90;;;;;;5036504;28;20059;-76
2023/08/07 11:51:00;;;;;;;11.20;1.52;;;17.90;99.90;;;;;;5055314;28;20127;-75
2023/08/07 11:53:27;;;;;;;15.60;1.90;;;18.00;99.90;;;;;;5020244;28;20128;-73
2023/08/07 11:56:00;;;;;;;13.60;1.63;;;18.30;99.90;;;;;;5054253;28;20092;-74
2023/08/07 11:58:33;;;;;;;16.00;1.80;;;18.50;99.90;;;;;;5053026;28;20131;-75
2023/08/07 12:00:59;;;;;;;11.55;1.60;;;18.60;99.90;;;;;;5054437;28;20125;-74
2023/08/07 12:03:29;;;;;;;11.57;2.30;;;18.80;99.90;;;;;;5054209;28;20076;-74
2023/08/07 12:05:57;;;;;;;11.23;1.70;;;18.70;99.90;;;;;;5054154;28;20106;-75
2023/08/07 12:08:24;;;;;;;10.63;1.73;;;18.70;99.90;;;;;;5052915;28;20430;-72
2023/08/07 12:10:51;;;;;;;8.90;1.17;;;18.60;99.90;;;;;;5054285;28;20392;-74
2023/08/07 12:13:20;;;;;;;9.57;1.27;;;18.30;99.90;;;;;;5054178;28;20037;-77
2023/08/07 12:15:46;;;;;;;12.35;1.48;;;18.40;99.90;;;;;;5053006;28;20049;-73
2023/08/07 12:18:13;;;;;;;8.33;1.40;;;18.40;99.90;;;;;;5052852;28;20444;-74
2023/08/07 12:20:38;;;;;;;9.63;2.15;;;18.20;99.90;;;;;;5052552;28;20045;-74
2023/08/07 12:23:04;;;;;;;14.67;1.70;;;18.30;99.90;;;;;;5054304;28;20362;-76
2023/08/07 12:25:30;;;;;;;11.00;1.87;;;18.60;99.90;;;;;;5054085;28;20477;-76
2023/08/07 12:27:55;;;;;;;12.60;2.20;;;18.90;99.90;;;;;;5053676;28;20049;-76
2023/08/07 12:30:21;;;;;;;7.40;1.30;;;19.10;99.90;;;;;;5054174;28;20516;-76
2023/08/07 12:32:47;;;;;;;8.30;1.17;;;19.20;99.90;;;;;;5053033;28;20049;-78
2023/08/07 12:35:12;;;;;;;9.60;1.63;;;18.80;99.90;;;;;;5054362;28;20377;-74
2023/08/07 12:37:38;;;;;;;11.67;1.80;;;18.80;99.90;;;;;;5052988;28;20122;-74